sensor_id;sensor_type;location;lat;lon;timestamp;P1;durP1;ratioP1;P2;durP2;ratioP2
67889;SDS011;54685;52.082;5.426;2023-05-07T00:01:33;9.93;;;6.88;;
67889;SDS011;54685;52.082;5.426;2023-05-07T00:04:00;9.02;;;6.85;;
67889;SDS011;54685;52.082;5.426;2023-05-07T00:06:27;10.27;;;7.05;;
67889;SDS011;54685;52.082;5.426;2023-05-07T00:08:56;8.05;;;7.25;;
67889;SDS011;54685;52.082;5.426;2023-05-07T00:11:25;12.38;;;7.43;;
67889;SDS011;54685;52.082;5.426;2023-05-07T00:13:52;10.50;;;7.18;;
67889;SDS011;54685;52.082;5.426;2023-05-07T00:16:19;9.63;;;6.95;;
67889;SDS011;54685;52.082;5.426;2023-05-07T00:18:46;8.65;;;7.05;;
67889;SDS011;54685;52.082;5.426;2023-05-07T00:21:13;9.32;;;6.65;;
67889;SDS011;54685;52.082;5.426;2023-05-07T00:23:40;7.28;;;6.57;;
67889;SDS011;54685;52.082;5.426;2023-05-07T00:26:07;10.60;;;7.07;;
67889;SDS011;54685;52.082;5.426;2023-05-07T00:28:33;10.27;;;7.95;;
67889;SDS011;54685;52.082;5.426;2023-05-07T00:31:01;10.25;;;7.05;;
67889;SDS011;54685;52.082;5.426;2023-05-07T00:33:27;10.05;;;7.60;;
67889;SDS011;54685;52.082;5.426;2023-05-07T00:35:54;13.25;;;8.45;;
67889;SDS011;54685;52.082;5.426;2023-05-07T00:38:21;9.60;;;8.02;;
67889;SDS011;54685;52.082;5.426;2023-05-07T00:40:48;10.50;;;8.13;;
67889;SDS011;54685;52.082;5.426;2023-05-07T00:43:15;8.05;;;7.25;;
67889;SDS011;54685;52.082;5.426;2023-05-07T00:45:42;10.40;;;7.45;;
67889;SDS011;54685;52.082;5.426;2023-05-07T00:48:09;9.52;;;8.27;;
67889;SDS011;54685;52.082;5.426;2023-05-07T00:50:36;9.35;;;7.88;;
67889;SDS011;54685;52.082;5.426;2023-05-07T00:53:03;13.25;;;7.88;;
67889;SDS011;54685;52.082;5.426;2023-05-07T00:55:30;7.20;;;6.47;;
67889;SDS011;54685;52.082;5.426;2023-05-07T00:57:57;8.55;;;7.68;;
67889;SDS011;54685;52.082;5.426;2023-05-07T01:00:24;10.57;;;8.73;;
67889;SDS011;54685;52.082;5.426;2023-05-07T01:02:51;7.82;;;7.03;;
67889;SDS011;54685;52.082;5.426;2023-05-07T01:05:19;8.85;;;8.00;;
67889;SDS011;54685;52.082;5.426;2023-05-07T01:07:47;8.38;;;7.47;;
67889;SDS011;54685;52.082;5.426;2023-05-07T01:10:14;8.57;;;7.78;;
67889;SDS011;54685;52.082;5.426;2023-05-07T01:12:42;8.88;;;7.55;;
67889;SDS011;54685;52.082;5.426;2023-05-07T01:15:10;8.75;;;7.00;;
67889;SDS011;54685;52.082;5.426;2023-05-07T01:17:40;8.38;;;7.00;;
67889;SDS011;54685;52.082;5.426;2023-05-07T01:20:17;11.27;;;7.22;;
67889;SDS011;54685;52.082;5.426;2023-05-07T01:22:46;9.45;;;7.32;;
67889;SDS011;54685;52.082;5.426;2023-05-07T01:25:13;8.30;;;7.05;;
67889;SDS011;54685;52.082;5.426;2023-05-07T01:27:46;8.60;;;7.70;;
67889;SDS011;54685;52.082;5.426;2023-05-07T01:30:13;9.20;;;7.78;;
67889;SDS011;54685;52.082;5.426;2023-05-07T01:32:48;8.23;;;7.50;;
67889;SDS011;54685;52.082;5.426;2023-05-07T01:35:22;9.68;;;7.32;;
67889;SDS011;54685;52.082;5.426;2023-05-07T01:37:54;10.88;;;8.15;;
67889;SDS011;54685;52.082;5.426;2023-05-07T01:40:22;11.07;;;7.95;;
67889;SDS011;54685;52.082;5.426;2023-05-07T01:42:50;8.90;;;7.90;;
67889;SDS011;54685;52.082;5.426;2023-05-07T01:45:18;9.93;;;8.20;;
67889;SDS011;54685;52.082;5.426;2023-05-07T01:47:45;8.60;;;7.70;;
67889;SDS011;54685;52.082;5.426;2023-05-07T01:50:12;9.90;;;8.13;;
67889;SDS011;54685;52.082;5.426;2023-05-07T01:52:42;8.93;;;8.02;;
67889;SDS011;54685;52.082;5.426;2023-05-07T01:55:09;11.52;;;8.98;;
67889;SDS011;54685;52.082;5.426;2023-05-07T01:57:37;9.80;;;8.77;;
67889;SDS011;54685;52.082;5.426;2023-05-07T02:00:04;13.75;;;9.23;;
67889;SDS011;54685;52.082;5.426;2023-05-07T02:02:40;10.35;;;8.77;;
67889;SDS011;54685;52.082;5.426;2023-05-07T02:05:18;11.18;;;8.50;;
67889;SDS011;54685;52.082;5.426;2023-05-07T02:07:49;11.15;;;8.98;;
67889;SDS011;54685;52.082;5.426;2023-05-07T02:10:16;10.45;;;8.98;;
67889;SDS011;54685;52.082;5.426;2023-05-07T02:12:43;9.80;;;8.43;;
67889;SDS011;54685;52.082;5.426;2023-05-07T02:15:10;10.82;;;8.90;;
67889;SDS011;54685;52.082;5.426;2023-05-07T02:20:30;10.88;;;7.95;;
67889;SDS011;54685;52.082;5.426;2023-05-07T02:22:57;10.23;;;9.00;;
67889;SDS011;54685;52.082;5.426;2023-05-07T02:25:25;11.15;;;8.57;;
67889;SDS011;54685;52.082;5.426;2023-05-07T02:27:52;11.73;;;9.57;;
67889;SDS011;54685;52.082;5.426;2023-05-07T02:30:24;11.00;;;9.55;;
67889;SDS011;54685;52.082;5.426;2023-05-07T02:32:54;12.45;;;9.30;;
67889;SDS011;54685;52.082;5.426;2023-05-07T02:35:21;12.52;;;8.77;;
67889;SDS011;54685;52.082;5.426;2023-05-07T02:37:48;9.90;;;7.95;;
67889;SDS011;54685;52.082;5.426;2023-05-07T02:40:15;11.02;;;8.85;;
67889;SDS011;54685;52.082;5.426;2023-05-07T02:42:41;12.15;;;8.52;;
67889;SDS011;54685;52.082;5.426;2023-05-07T02:45:08;9.20;;;8.27;;
67889;SDS011;54685;52.082;5.426;2023-05-07T02:47:37;9.50;;;8.57;;
67889;SDS011;54685;52.082;5.426;2023-05-07T02:50:04;10.57;;;8.55;;
67889;SDS011;54685;52.082;5.426;2023-05-07T02:52:32;10.48;;;8.13;;
67889;SDS011;54685;52.082;5.426;2023-05-07T02:54:59;12.77;;;9.20;;
67889;SDS011;54685;52.082;5.426;2023-05-07T02:57:26;9.07;;;8.23;;
67889;SDS011;54685;52.082;5.426;2023-05-07T02:59:53;11.55;;;9.98;;
67889;SDS011;54685;52.082;5.426;2023-05-07T03:02:21;11.40;;;10.30;;
67889;SDS011;54685;52.082;5.426;2023-05-07T03:04:49;12.27;;;10.40;;
67889;SDS011;54685;52.082;5.426;2023-05-07T03:07:15;12.63;;;10.68;;
67889;SDS011;54685;52.082;5.426;2023-05-07T03:09:42;11.75;;;10.23;;
67889;SDS011;54685;52.082;5.426;2023-05-07T03:12:09;13.05;;;10.77;;
67889;SDS011;54685;52.082;5.426;2023-05-07T03:14:36;13.27;;;10.68;;
67889;SDS011;54685;52.082;5.426;2023-05-07T03:17:03;13.50;;;10.60;;
67889;SDS011;54685;52.082;5.426;2023-05-07T03:19:29;10.35;;;9.35;;
67889;SDS011;54685;52.082;5.426;2023-05-07T03:21:57;10.30;;;9.02;;
67889;SDS011;54685;52.082;5.426;2023-05-07T03:24:24;10.15;;;9.13;;
67889;SDS011;54685;52.082;5.426;2023-05-07T03:26:51;12.13;;;9.93;;
67889;SDS011;54685;52.082;5.426;2023-05-07T03:29:17;11.32;;;10.23;;
67889;SDS011;54685;52.082;5.426;2023-05-07T03:31:44;11.55;;;10.38;;
67889;SDS011;54685;52.082;5.426;2023-05-07T03:34:11;11.18;;;8.15;;
67889;SDS011;54685;52.082;5.426;2023-05-07T03:36:38;11.23;;;9.60;;
67889;SDS011;54685;52.082;5.426;2023-05-07T03:39:08;13.30;;;10.18;;
67889;SDS011;54685;52.082;5.426;2023-05-07T03:41:38;9.93;;;8.70;;
67889;SDS011;54685;52.082;5.426;2023-05-07T03:44:05;12.18;;;10.60;;
67889;SDS011;54685;52.082;5.426;2023-05-07T03:46:33;13.07;;;10.50;;
67889;SDS011;54685;52.082;5.426;2023-05-07T03:49:00;13.20;;;10.52;;
67889;SDS011;54685;52.082;5.426;2023-05-07T03:51:27;12.43;;;9.65;;
67889;SDS011;54685;52.082;5.426;2023-05-07T03:53:54;14.10;;;9.77;;
67889;SDS011;54685;52.082;5.426;2023-05-07T03:56:24;13.20;;;9.73;;
67889;SDS011;54685;52.082;5.426;2023-05-07T03:58:54;12.18;;;9.80;;
67889;SDS011;54685;52.082;5.426;2023-05-07T04:01:21;12.68;;;10.48;;
67889;SDS011;54685;52.082;5.426;2023-05-07T04:03:47;13.68;;;10.10;;
67889;SDS011;54685;52.082;5.426;2023-05-07T04:06:15;13.05;;;10.25;;
67889;SDS011;54685;52.082;5.426;2023-05-07T04:08:45;12.70;;;9.80;;
67889;SDS011;54685;52.082;5.426;2023-05-07T04:11:12;10.65;;;9.65;;
67889;SDS011;54685;52.082;5.426;2023-05-07T04:13:39;12.60;;;10.48;;
67889;SDS011;54685;52.082;5.426;2023-05-07T04:16:08;10.27;;;9.27;;
67889;SDS011;54685;52.082;5.426;2023-05-07T04:18:36;14.80;;;10.93;;
67889;SDS011;54685;52.082;5.426;2023-05-07T04:21:04;11.32;;;10.20;;
67889;SDS011;54685;52.082;5.426;2023-05-07T04:23:33;12.90;;;10.27;;
67889;SDS011;54685;52.082;5.426;2023-05-07T04:26:03;13.60;;;12.05;;
67889;SDS011;54685;52.082;5.426;2023-05-07T04:28:38;11.57;;;10.43;;
67889;SDS011;54685;52.082;5.426;2023-05-07T04:31:06;14.65;;;10.38;;
67889;SDS011;54685;52.082;5.426;2023-05-07T04:33:35;13.32;;;9.90;;
67889;SDS011;54685;52.082;5.426;2023-05-07T04:36:03;14.50;;;11.05;;
67889;SDS011;54685;52.082;5.426;2023-05-07T04:38:35;14.43;;;9.35;;
67889;SDS011;54685;52.082;5.426;2023-05-07T04:41:03;14.63;;;10.55;;
67889;SDS011;54685;52.082;5.426;2023-05-07T04:43:34;13.25;;;10.10;;
67889;SDS011;54685;52.082;5.426;2023-05-07T04:46:01;10.45;;;9.40;;
67889;SDS011;54685;52.082;5.426;2023-05-07T04:48:28;13.52;;;10.88;;
67889;SDS011;54685;52.082;5.426;2023-05-07T04:50:57;12.07;;;10.77;;
67889;SDS011;54685;52.082;5.426;2023-05-07T04:53:24;13.18;;;11.15;;
67889;SDS011;54685;52.082;5.426;2023-05-07T04:55:56;12.38;;;10.50;;
67889;SDS011;54685;52.082;5.426;2023-05-07T04:58:26;15.95;;;12.25;;
67889;SDS011;54685;52.082;5.426;2023-05-07T05:00:53;13.45;;;11.55;;
67889;SDS011;54685;52.082;5.426;2023-05-07T05:03:21;10.77;;;9.68;;
67889;SDS011;54685;52.082;5.426;2023-05-07T05:05:51;12.27;;;10.88;;
67889;SDS011;54685;52.082;5.426;2023-05-07T05:08:21;16.75;;;10.40;;
67889;SDS011;54685;52.082;5.426;2023-05-07T05:10:48;12.10;;;10.65;;
67889;SDS011;54685;52.082;5.426;2023-05-07T05:13:16;13.90;;;11.07;;
67889;SDS011;54685;52.082;5.426;2023-05-07T05:15:44;15.50;;;11.88;;
67889;SDS011;54685;52.082;5.426;2023-05-07T05:18:11;13.13;;;10.00;;
67889;SDS011;54685;52.082;5.426;2023-05-07T05:20:38;17.00;;;11.38;;
67889;SDS011;54685;52.082;5.426;2023-05-07T05:23:07;14.35;;;10.57;;
67889;SDS011;54685;52.082;5.426;2023-05-07T05:25:34;15.88;;;12.23;;
67889;SDS011;54685;52.082;5.426;2023-05-07T05:28:01;13.27;;;11.25;;
67889;SDS011;54685;52.082;5.426;2023-05-07T05:30:30;15.18;;;11.52;;
67889;SDS011;54685;52.082;5.426;2023-05-07T05:32:56;16.13;;;12.70;;
67889;SDS011;54685;52.082;5.426;2023-05-07T05:35:25;19.45;;;13.18;;
67889;SDS011;54685;52.082;5.426;2023-05-07T05:37:52;22.92;;;11.90;;
67889;SDS011;54685;52.082;5.426;2023-05-07T05:40:19;17.30;;;11.80;;
67889;SDS011;54685;52.082;5.426;2023-05-07T05:42:46;21.38;;;12.02;;
67889;SDS011;54685;52.082;5.426;2023-05-07T05:45:14;13.50;;;12.07;;
67889;SDS011;54685;52.082;5.426;2023-05-07T05:47:42;18.92;;;12.25;;
67889;SDS011;54685;52.082;5.426;2023-05-07T05:50:09;16.52;;;12.45;;
67889;SDS011;54685;52.082;5.426;2023-05-07T05:52:37;13.85;;;11.45;;
67889;SDS011;54685;52.082;5.426;2023-05-07T05:55:04;15.52;;;12.50;;
67889;SDS011;54685;52.082;5.426;2023-05-07T05:57:31;14.85;;;12.25;;
67889;SDS011;54685;52.082;5.426;2023-05-07T05:59:58;15.00;;;12.95;;
67889;SDS011;54685;52.082;5.426;2023-05-07T06:02:26;15.65;;;12.93;;
67889;SDS011;54685;52.082;5.426;2023-05-07T06:04:53;17.42;;;12.05;;
67889;SDS011;54685;52.082;5.426;2023-05-07T06:07:21;16.00;;;13.88;;
67889;SDS011;54685;52.082;5.426;2023-05-07T06:09:48;14.15;;;12.55;;
67889;SDS011;54685;52.082;5.426;2023-05-07T06:12:15;21.05;;;15.18;;
67889;SDS011;54685;52.082;5.426;2023-05-07T06:14:42;17.63;;;13.35;;
67889;SDS011;54685;52.082;5.426;2023-05-07T06:17:10;18.20;;;14.00;;
67889;SDS011;54685;52.082;5.426;2023-05-07T06:19:37;20.50;;;15.07;;
67889;SDS011;54685;52.082;5.426;2023-05-07T06:22:04;15.05;;;12.20;;
67889;SDS011;54685;52.082;5.426;2023-05-07T06:24:33;18.45;;;14.35;;
67889;SDS011;54685;52.082;5.426;2023-05-07T06:27:00;17.13;;;12.45;;
67889;SDS011;54685;52.082;5.426;2023-05-07T06:29:31;15.00;;;13.32;;
67889;SDS011;54685;52.082;5.426;2023-05-07T06:32:11;15.75;;;13.68;;
67889;SDS011;54685;52.082;5.426;2023-05-07T06:34:41;20.63;;;15.00;;
67889;SDS011;54685;52.082;5.426;2023-05-07T06:37:08;16.00;;;13.63;;
67889;SDS011;54685;52.082;5.426;2023-05-07T06:39:57;16.52;;;14.00;;
67889;SDS011;54685;52.082;5.426;2023-05-07T06:42:26;21.10;;;14.80;;
67889;SDS011;54685;52.082;5.426;2023-05-07T06:44:57;17.50;;;14.38;;
67889;SDS011;54685;52.082;5.426;2023-05-07T06:47:25;19.30;;;15.98;;
67889;SDS011;54685;52.082;5.426;2023-05-07T06:49:53;18.20;;;15.32;;
67889;SDS011;54685;52.082;5.426;2023-05-07T06:52:24;19.77;;;15.43;;
67889;SDS011;54685;52.082;5.426;2023-05-07T06:54:52;18.52;;;16.20;;
67889;SDS011;54685;52.082;5.426;2023-05-07T06:57:21;18.75;;;16.52;;
67889;SDS011;54685;52.082;5.426;2023-05-07T06:59:48;16.63;;;14.77;;
67889;SDS011;54685;52.082;5.426;2023-05-07T07:02:15;18.70;;;16.65;;
67889;SDS011;54685;52.082;5.426;2023-05-07T07:04:44;18.08;;;14.68;;
67889;SDS011;54685;52.082;5.426;2023-05-07T07:07:12;17.63;;;15.77;;
67889;SDS011;54685;52.082;5.426;2023-05-07T07:09:41;16.83;;;15.23;;
67889;SDS011;54685;52.082;5.426;2023-05-07T07:12:08;21.02;;;16.42;;
67889;SDS011;54685;52.082;5.426;2023-05-07T07:14:38;17.02;;;15.23;;
67889;SDS011;54685;52.082;5.426;2023-05-07T07:17:04;15.65;;;14.05;;
67889;SDS011;54685;52.082;5.426;2023-05-07T07:19:32;19.80;;;16.02;;
67889;SDS011;54685;52.082;5.426;2023-05-07T07:22:01;16.73;;;14.95;;
67889;SDS011;54685;52.082;5.426;2023-05-07T07:24:28;17.83;;;15.93;;
67889;SDS011;54685;52.082;5.426;2023-05-07T07:27:00;17.33;;;15.52;;
67889;SDS011;54685;52.082;5.426;2023-05-07T07:29:27;17.65;;;15.32;;
67889;SDS011;54685;52.082;5.426;2023-05-07T07:31:54;17.38;;;15.50;;
67889;SDS011;54685;52.082;5.426;2023-05-07T07:34:22;17.35;;;15.18;;
67889;SDS011;54685;52.082;5.426;2023-05-07T07:36:49;17.65;;;15.55;;
67889;SDS011;54685;52.082;5.426;2023-05-07T07:39:17;15.95;;;14.10;;
67889;SDS011;54685;52.082;5.426;2023-05-07T07:41:47;18.65;;;14.40;;
67889;SDS011;54685;52.082;5.426;2023-05-07T07:44:15;16.75;;;15.07;;
67889;SDS011;54685;52.082;5.426;2023-05-07T07:46:47;17.67;;;14.13;;
67889;SDS011;54685;52.082;5.426;2023-05-07T07:49:14;15.57;;;13.98;;
67889;SDS011;54685;52.082;5.426;2023-05-07T07:51:42;17.00;;;13.95;;
67889;SDS011;54685;52.082;5.426;2023-05-07T07:54:11;16.70;;;14.00;;
67889;SDS011;54685;52.082;5.426;2023-05-07T07:56:39;16.70;;;14.35;;
67889;SDS011;54685;52.082;5.426;2023-05-07T07:59:07;15.43;;;13.88;;
67889;SDS011;54685;52.082;5.426;2023-05-07T08:01:37;17.05;;;13.50;;
67889;SDS011;54685;52.082;5.426;2023-05-07T08:04:04;16.13;;;13.15;;
67889;SDS011;54685;52.082;5.426;2023-05-07T08:06:35;14.75;;;13.20;;
67889;SDS011;54685;52.082;5.426;2023-05-07T08:09:02;15.10;;;12.15;;
67889;SDS011;54685;52.082;5.426;2023-05-07T08:11:30;14.35;;;12.80;;
67889;SDS011;54685;52.082;5.426;2023-05-07T08:13:57;14.57;;;13.07;;
67889;SDS011;54685;52.082;5.426;2023-05-07T08:16:24;13.85;;;12.38;;
67889;SDS011;54685;52.082;5.426;2023-05-07T08:18:52;14.68;;;12.35;;
67889;SDS011;54685;52.082;5.426;2023-05-07T08:21:19;15.70;;;12.70;;
67889;SDS011;54685;52.082;5.426;2023-05-07T08:23:46;14.50;;;13.00;;
67889;SDS011;54685;52.082;5.426;2023-05-07T08:26:13;15.95;;;13.82;;
67889;SDS011;54685;52.082;5.426;2023-05-07T08:28:43;15.57;;;12.60;;
67889;SDS011;54685;52.082;5.426;2023-05-07T08:31:10;17.67;;;14.80;;
67889;SDS011;54685;52.082;5.426;2023-05-07T08:33:39;15.95;;;13.73;;
67889;SDS011;54685;52.082;5.426;2023-05-07T08:36:06;15.52;;;13.90;;
67889;SDS011;54685;52.082;5.426;2023-05-07T08:38:33;14.70;;;13.27;;
67889;SDS011;54685;52.082;5.426;2023-05-07T08:41:01;15.48;;;13.88;;
67889;SDS011;54685;52.082;5.426;2023-05-07T08:43:30;16.60;;;15.00;;
67889;SDS011;54685;52.082;5.426;2023-05-07T08:46:00;19.45;;;16.15;;
67889;SDS011;54685;52.082;5.426;2023-05-07T08:48:32;18.25;;;15.23;;
67889;SDS011;54685;52.082;5.426;2023-05-07T08:51:05;17.52;;;15.63;;
67889;SDS011;54685;52.082;5.426;2023-05-07T08:53:32;17.85;;;15.18;;
67889;SDS011;54685;52.082;5.426;2023-05-07T08:55:59;23.35;;;14.88;;
67889;SDS011;54685;52.082;5.426;2023-05-07T08:58:28;16.90;;;14.70;;
67889;SDS011;54685;52.082;5.426;2023-05-07T09:00:55;14.55;;;12.82;;
67889;SDS011;54685;52.082;5.426;2023-05-07T09:03:23;16.45;;;14.43;;
67889;SDS011;54685;52.082;5.426;2023-05-07T09:05:53;17.83;;;14.38;;
67889;SDS011;54685;52.082;5.426;2023-05-07T09:08:24;21.60;;;15.77;;
67889;SDS011;54685;52.082;5.426;2023-05-07T09:10:53;20.30;;;17.20;;
67889;SDS011;54685;52.082;5.426;2023-05-07T09:13:21;23.02;;;16.45;;
67889;SDS011;54685;52.082;5.426;2023-05-07T09:15:49;20.35;;;16.65;;
67889;SDS011;54685;52.082;5.426;2023-05-07T09:18:16;20.17;;;17.52;;
67889;SDS011;54685;52.082;5.426;2023-05-07T09:20:46;21.83;;;18.80;;
67889;SDS011;54685;52.082;5.426;2023-05-07T09:23:14;26.05;;;21.02;;
67889;SDS011;54685;52.082;5.426;2023-05-07T09:25:42;22.45;;;18.90;;
67889;SDS011;54685;52.082;5.426;2023-05-07T09:28:19;21.15;;;18.85;;
67889;SDS011;54685;52.082;5.426;2023-05-07T09:30:47;22.38;;;18.80;;
67889;SDS011;54685;52.082;5.426;2023-05-07T09:33:14;22.33;;;19.17;;
67889;SDS011;54685;52.082;5.426;2023-05-07T09:35:46;25.10;;;21.85;;
67889;SDS011;54685;52.082;5.426;2023-05-07T09:38:18;22.50;;;20.20;;
67889;SDS011;54685;52.082;5.426;2023-05-07T09:41:01;21.70;;;19.45;;
67889;SDS011;54685;52.082;5.426;2023-05-07T09:43:53;20.40;;;18.23;;
67889;SDS011;54685;52.082;5.426;2023-05-07T09:46:25;23.60;;;20.92;;
67889;SDS011;54685;52.082;5.426;2023-05-07T09:48:58;20.33;;;17.92;;
67889;SDS011;54685;52.082;5.426;2023-05-07T09:51:29;25.10;;;19.75;;
67889;SDS011;54685;52.082;5.426;2023-05-07T09:54:05;19.63;;;17.67;;
67889;SDS011;54685;52.082;5.426;2023-05-07T09:56:35;25.02;;;20.77;;
67889;SDS011;54685;52.082;5.426;2023-05-07T09:59:04;20.00;;;18.05;;
67889;SDS011;54685;52.082;5.426;2023-05-07T10:01:33;21.65;;;19.40;;
67889;SDS011;54685;52.082;5.426;2023-05-07T10:04:03;22.13;;;18.38;;
67889;SDS011;54685;52.082;5.426;2023-05-07T10:06:32;20.40;;;18.30;;
67889;SDS011;54685;52.082;5.426;2023-05-07T10:08:59;20.75;;;18.48;;
67889;SDS011;54685;52.082;5.426;2023-05-07T10:11:26;18.35;;;16.45;;
67889;SDS011;54685;52.082;5.426;2023-05-07T10:13:54;20.77;;;17.17;;
67889;SDS011;54685;52.082;5.426;2023-05-07T10:16:22;19.30;;;16.35;;
67889;SDS011;54685;52.082;5.426;2023-05-07T10:18:49;20.27;;;18.05;;
67889;SDS011;54685;52.082;5.426;2023-05-07T10:21:22;19.30;;;17.48;;
67889;SDS011;54685;52.082;5.426;2023-05-07T10:24:04;19.15;;;15.82;;
67889;SDS011;54685;52.082;5.426;2023-05-07T10:26:35;18.73;;;16.10;;
67889;SDS011;54685;52.082;5.426;2023-05-07T10:29:10;21.45;;;17.70;;
67889;SDS011;54685;52.082;5.426;2023-05-07T10:34:29;17.35;;;15.55;;
67889;SDS011;54685;52.082;5.426;2023-05-07T10:37:07;17.90;;;16.00;;
67889;SDS011;54685;52.082;5.426;2023-05-07T10:39:36;21.83;;;16.80;;
67889;SDS011;54685;52.082;5.426;2023-05-07T10:42:13;17.92;;;15.88;;
67889;SDS011;54685;52.082;5.426;2023-05-07T10:44:46;19.45;;;17.38;;
67889;SDS011;54685;52.082;5.426;2023-05-07T10:47:20;18.70;;;16.23;;
67889;SDS011;54685;52.082;5.426;2023-05-07T10:52:40;20.52;;;17.45;;
67889;SDS011;54685;52.082;5.426;2023-05-07T11:01:09;16.52;;;14.77;;
67889;SDS011;54685;52.082;5.426;2023-05-07T11:06:40;17.88;;;14.75;;
67889;SDS011;54685;52.082;5.426;2023-05-07T11:09:09;16.25;;;14.23;;
67889;SDS011;54685;52.082;5.426;2023-05-07T11:11:48;15.98;;;13.57;;
67889;SDS011;54685;52.082;5.426;2023-05-07T11:17:14;19.08;;;14.18;;
67889;SDS011;54685;52.082;5.426;2023-05-07T11:19:54;17.05;;;15.25;;
67889;SDS011;54685;52.082;5.426;2023-05-07T11:25:27;14.40;;;12.95;;
67889;SDS011;54685;52.082;5.426;2023-05-07T11:28:07;15.45;;;13.85;;
67889;SDS011;54685;52.082;5.426;2023-05-07T11:30:42;19.17;;;15.13;;
67889;SDS011;54685;52.082;5.426;2023-05-07T11:33:12;16.38;;;14.68;;
67889;SDS011;54685;52.082;5.426;2023-05-07T11:38:13;16.42;;;14.73;;
67889;SDS011;54685;52.082;5.426;2023-05-07T11:40:54;16.83;;;14.05;;
67889;SDS011;54685;52.082;5.426;2023-05-07T11:43:27;16.65;;;14.50;;
67889;SDS011;54685;52.082;5.426;2023-05-07T11:45:54;18.80;;;13.60;;
67889;SDS011;54685;52.082;5.426;2023-05-07T11:48:21;13.45;;;12.07;;
67889;SDS011;54685;52.082;5.426;2023-05-07T11:50:52;15.50;;;13.82;;
67889;SDS011;54685;52.082;5.426;2023-05-07T11:53:26;20.77;;;14.10;;
67889;SDS011;54685;52.082;5.426;2023-05-07T11:55:56;15.73;;;12.65;;
67889;SDS011;54685;52.082;5.426;2023-05-07T11:58:24;23.50;;;13.55;;
67889;SDS011;54685;52.082;5.426;2023-05-07T12:00:54;14.98;;;12.15;;
67889;SDS011;54685;52.082;5.426;2023-05-07T12:03:21;15.82;;;11.90;;
67889;SDS011;54685;52.082;5.426;2023-05-07T12:05:48;10.68;;;7.63;;
67889;SDS011;54685;52.082;5.426;2023-05-07T12:08:21;8.75;;;6.40;;
67889;SDS011;54685;52.082;5.426;2023-05-07T12:10:49;7.93;;;5.57;;
67889;SDS011;54685;52.082;5.426;2023-05-07T12:13:20;7.13;;;5.15;;
67889;SDS011;54685;52.082;5.426;2023-05-07T12:15:55;8.07;;;5.03;;
67889;SDS011;54685;52.082;5.426;2023-05-07T12:18:22;10.15;;;5.88;;
67889;SDS011;54685;52.082;5.426;2023-05-07T12:20:50;8.45;;;6.10;;
67889;SDS011;54685;52.082;5.426;2023-05-07T12:23:17;8.45;;;6.13;;
67889;SDS011;54685;52.082;5.426;2023-05-07T12:25:45;10.13;;;7.55;;
67889;SDS011;54685;52.082;5.426;2023-05-07T12:28:16;7.88;;;6.53;;
67889;SDS011;54685;52.082;5.426;2023-05-07T12:30:45;9.82;;;5.28;;
67889;SDS011;54685;52.082;5.426;2023-05-07T12:33:18;9.38;;;5.47;;
67889;SDS011;54685;52.082;5.426;2023-05-07T12:38:17;5.22;;;4.47;;
67889;SDS011;54685;52.082;5.426;2023-05-07T12:40:47;8.90;;;4.10;;
67889;SDS011;54685;52.082;5.426;2023-05-07T12:43:18;6.95;;;4.72;;
67889;SDS011;54685;52.082;5.426;2023-05-07T12:45:51;9.55;;;4.93;;
67889;SDS011;54685;52.082;5.426;2023-05-07T12:48:22;7.25;;;4.57;;
67889;SDS011;54685;52.082;5.426;2023-05-07T12:50:50;7.07;;;5.18;;
67889;SDS011;54685;52.082;5.426;2023-05-07T12:53:21;6.78;;;4.40;;
67889;SDS011;54685;52.082;5.426;2023-05-07T12:55:55;7.75;;;4.55;;
67889;SDS011;54685;52.082;5.426;2023-05-07T12:58:30;8.88;;;5.97;;
67889;SDS011;54685;52.082;5.426;2023-05-07T13:01:01;6.88;;;5.30;;
67889;SDS011;54685;52.082;5.426;2023-05-07T13:08:36;8.20;;;6.45;;
67889;SDS011;54685;52.082;5.426;2023-05-07T13:11:07;8.67;;;5.30;;
67889;SDS011;54685;52.082;5.426;2023-05-07T13:13:35;8.77;;;6.13;;
67889;SDS011;54685;52.082;5.426;2023-05-07T13:16:04;9.57;;;6.40;;
67889;SDS011;54685;52.082;5.426;2023-05-07T13:18:32;10.85;;;7.30;;
67889;SDS011;54685;52.082;5.426;2023-05-07T13:21:00;7.93;;;6.22;;
67889;SDS011;54685;52.082;5.426;2023-05-07T13:23:28;8.55;;;6.60;;
67889;SDS011;54685;52.082;5.426;2023-05-07T13:25:55;7.13;;;5.72;;
67889;SDS011;54685;52.082;5.426;2023-05-07T13:28:23;13.68;;;8.85;;
67889;SDS011;54685;52.082;5.426;2023-05-07T13:30:50;10.68;;;9.57;;
67889;SDS011;54685;52.082;5.426;2023-05-07T13:33:19;12.68;;;10.30;;
67889;SDS011;54685;52.082;5.426;2023-05-07T13:35:46;13.38;;;10.52;;
67889;SDS011;54685;52.082;5.426;2023-05-07T13:38:13;15.43;;;11.80;;
67889;SDS011;54685;52.082;5.426;2023-05-07T13:40:42;14.00;;;11.73;;
67889;SDS011;54685;52.082;5.426;2023-05-07T13:43:08;16.80;;;12.70;;
67889;SDS011;54685;52.082;5.426;2023-05-07T13:45:37;14.50;;;12.98;;
67889;SDS011;54685;52.082;5.426;2023-05-07T13:48:04;15.68;;;12.60;;
67889;SDS011;54685;52.082;5.426;2023-05-07T13:50:31;13.77;;;10.82;;
67889;SDS011;54685;52.082;5.426;2023-05-07T13:52:58;12.68;;;10.48;;
67889;SDS011;54685;52.082;5.426;2023-05-07T13:55:25;70.38;;;14.73;;
67889;SDS011;54685;52.082;5.426;2023-05-07T13:57:55;14.60;;;13.15;;
67889;SDS011;54685;52.082;5.426;2023-05-07T14:00:24;14.10;;;12.27;;
67889;SDS011;54685;52.082;5.426;2023-05-07T14:02:53;16.52;;;14.82;;
67889;SDS011;54685;52.082;5.426;2023-05-07T14:05:20;15.32;;;13.63;;
67889;SDS011;54685;52.082;5.426;2023-05-07T14:07:52;16.60;;;13.95;;
67889;SDS011;54685;52.082;5.426;2023-05-07T14:10:19;15.55;;;13.93;;
67889;SDS011;54685;52.082;5.426;2023-05-07T14:12:46;17.23;;;12.88;;
67889;SDS011;54685;52.082;5.426;2023-05-07T14:15:14;17.05;;;13.70;;
67889;SDS011;54685;52.082;5.426;2023-05-07T14:17:42;15.02;;;13.52;;
67889;SDS011;54685;52.082;5.426;2023-05-07T14:20:10;18.73;;;14.40;;
67889;SDS011;54685;52.082;5.426;2023-05-07T14:22:39;16.55;;;14.10;;
67889;SDS011;54685;52.082;5.426;2023-05-07T14:25:06;13.77;;;12.45;;
67889;SDS011;54685;52.082;5.426;2023-05-07T14:27:33;14.18;;;12.50;;
67889;SDS011;54685;52.082;5.426;2023-05-07T14:30:00;18.95;;;10.65;;
67889;SDS011;54685;52.082;5.426;2023-05-07T14:32:27;13.43;;;11.20;;
67889;SDS011;54685;52.082;5.426;2023-05-07T14:34:54;17.60;;;14.85;;
67889;SDS011;54685;52.082;5.426;2023-05-07T14:37:21;20.77;;;14.77;;
67889;SDS011;54685;52.082;5.426;2023-05-07T14:39:48;17.92;;;14.65;;
67889;SDS011;54685;52.082;5.426;2023-05-07T14:42:16;19.55;;;14.20;;
67889;SDS011;54685;52.082;5.426;2023-05-07T14:44:44;14.77;;;13.18;;
67889;SDS011;54685;52.082;5.426;2023-05-07T14:47:12;15.85;;;13.48;;
67889;SDS011;54685;52.082;5.426;2023-05-07T14:49:40;13.75;;;12.32;;
67889;SDS011;54685;52.082;5.426;2023-05-07T14:52:08;13.57;;;12.07;;
67889;SDS011;54685;52.082;5.426;2023-05-07T14:54:36;15.38;;;11.55;;
67889;SDS011;54685;52.082;5.426;2023-05-07T14:57:06;12.30;;;10.98;;
67889;SDS011;54685;52.082;5.426;2023-05-07T14:59:34;15.15;;;11.65;;
67889;SDS011;54685;52.082;5.426;2023-05-07T15:02:01;16.60;;;12.88;;
67889;SDS011;54685;52.082;5.426;2023-05-07T15:04:32;13.73;;;12.38;;
67889;SDS011;54685;52.082;5.426;2023-05-07T15:06:59;14.40;;;12.25;;
67889;SDS011;54685;52.082;5.426;2023-05-07T15:09:26;17.75;;;13.00;;
67889;SDS011;54685;52.082;5.426;2023-05-07T15:11:53;15.95;;;11.75;;